Time;durP1;ratioP1;P1;durP2;ratioP2;P2;SDS_P1;SDS_P2;PMS_P1;PMS_P2;Temp;Humidity;BMP_temperature;BMP_pressure;BME280_temperature;BME280_humidity;BME280_pressure;Samples;Min_cycle;Max_cycle;Signal;HPM_P1;HPM_P2
2022/05/22 00:01:00;;;;;;;0.00;0.00;;;;;;;10.92;98.40;100666.44;5077198;28;20178;-70
2022/05/22 00:03:25;;;;;;;0.00;0.00;;;;;;;10.88;98.84;100678.31;5077409;28;20236;-70
2022/05/22 00:05:51;;;;;;;0.00;0.00;;;;;;;10.87;99.34;100665.75;5077355;28;20634;-69
2022/05/22 00:08:17;;;;;;;0.00;0.00;;;;;;;10.79;99.33;100670.00;5077096;28;20809;-70
2022/05/22 00:10:42;;;;;;;0.00;0.00;;;;;;;10.69;99.76;100671.03;5077251;28;20182;-70
2022/05/22 00:13:07;;;;;;;0.13;0.13;;;;;;;10.57;100.00;100665.31;5077105;28;20272;-70
2022/05/22 00:15:33;;;;;;;0.00;0.00;;;;;;;10.53;100.00;100661.53;5077265;28;20580;-69
2022/05/22 00:17:58;;;;;;;0.00;0.00;;;;;;;10.58;100.00;100657.91;5077152;28;20178;-70
2022/05/22 00:20:23;;;;;;;0.00;0.00;;;;;;;10.63;100.00;100661.34;5077405;28;20175;-70
2022/05/22 00:22:49;;;;;;;0.00;0.00;;;;;;;10.62;100.00;100656.19;5077016;28;20281;-70
2022/05/22 00:25:15;;;;;;;0.00;0.00;;;;;;;10.58;100.00;100666.91;5077129;28;20211;-70
2022/05/22 00:27:41;;;;;;;0.50;0.50;;;;;;;10.53;100.00;100667.00;5076896;28;20178;-71
2022/05/22 00:30:08;;;;;;;0.30;0.30;;;;;;;10.46;100.00;100657.63;5077026;28;20183;-71
2022/05/22 00:32:34;;;;;;;0.20;0.10;;;;;;;10.44;100.00;100657.94;5077223;28;20170;-70
2022/05/22 00:34:59;;;;;;;0.00;0.00;;;;;;;10.37;100.00;100655.59;5076969;28;20182;-70
2022/05/22 00:37:25;;;;;;;0.10;0.10;;;;;;;10.32;100.00;100663.09;5076821;28;20189;-70
2022/05/22 00:39:50;;;;;;;0.17;0.17;;;;;;;10.30;100.00;100660.66;5076968;28;20182;-70
2022/05/22 00:42:20;;;;;;;0.13;0.13;;;;;;;10.27;100.00;100660.44;5076933;28;20175;-70
2022/05/22 00:44:47;;;;;;;0.00;0.00;;;;;;;10.23;100.00;100653.97;5076861;28;20186;-70
2022/05/22 00:47:13;;;;;;;0.00;0.00;;;;;;;10.21;100.00;100658.91;5077028;28;20233;-71
2022/05/22 00:49:43;;;;;;;0.87;0.87;;;;;;;10.16;100.00;100661.75;5076884;28;20630;-70
2022/05/22 00:52:17;;;;;;;0.20;0.20;;;;;;;10.11;100.00;100654.44;5076876;28;20174;-70
2022/05/22 00:54:47;;;;;;;0.00;0.00;;;;;;;10.11;100.00;100646.25;5076781;28;20241;-69
2022/05/22 00:57:22;;;;;;;0.00;0.00;;;;;;;10.06;100.00;100643.63;5076795;28;20171;-70
2022/05/22 00:59:55;;;;;;;0.00;0.00;;;;;;;9.95;100.00;100643.03;5076814;28;20154;-69
2022/05/22 01:02:21;;;;;;;1.23;1.20;;;;;;;9.91;100.00;100639.28;5076814;28;20186;-70
2022/05/22 01:04:49;;;;;;;0.20;0.20;;;;;;;9.90;100.00;100647.78;5076743;28;20205;-70
2022/05/22 01:07:16;;;;;;;0.00;0.00;;;;;;;9.95;100.00;100642.22;5076541;28;20735;-70
2022/05/22 01:09:41;;;;;;;0.53;0.53;;;;;;;10.05;100.00;100653.75;5076732;28;20186;-70
2022/05/22 01:12:12;;;;;;;0.60;0.60;;;;;;;10.12;100.00;100645.94;5072738;28;20202;-69
2022/05/22 01:14:39;;;;;;;0.00;0.00;;;;;;;10.20;100.00;100641.72;5073517;28;20155;-70
2022/05/22 01:17:09;;;;;;;0.00;0.00;;;;;;;10.30;100.00;100638.81;5073457;28;20177;-70
2022/05/22 01:19:35;;;;;;;0.50;0.50;;;;;;;10.36;100.00;100640.31;5073237;28;20191;-70
2022/05/22 01:22:07;;;;;;;3.90;0.50;;;;;;;10.43;100.00;100648.13;5073349;28;20181;-70
2022/05/22 01:24:32;;;;;;;3.47;0.90;;;;;;;10.48;100.00;100648.00;5073290;28;20178;-70
2022/05/22 01:27:02;;;;;;;0.57;0.57;;;;;;;10.55;100.00;100653.84;5073125;28;20687;-69
2022/05/22 01:29:27;;;;;;;0.03;0.03;;;;;;;10.60;100.00;100648.28;5072994;28;20220;-70
2022/05/22 01:31:53;;;;;;;0.13;0.13;;;;;;;10.59;100.00;100643.94;5073110;28;20178;-70
2022/05/22 01:34:19;;;;;;;0.00;0.00;;;;;;;10.61;100.00;100649.09;5072993;28;20181;-70
2022/05/22 01:36:44;;;;;;;0.00;0.00;;;;;;;10.61;100.00;100649.91;5072984;28;20177;-70
2022/05/22 01:39:10;;;;;;;0.00;0.00;;;;;;;10.56;100.00;100654.66;5073049;28;20578;-71
2022/05/22 01:41:35;;;;;;;0.00;0.00;;;;;;;10.52;100.00;100654.47;5073340;28;20318;-70
2022/05/22 01:44:01;;;;;;;0.07;0.07;;;;;;;10.48;100.00;100656.19;5072938;28;20740;-70
2022/05/22 01:46:26;;;;;;;0.00;0.00;;;;;;;10.37;100.00;100655.59;5072399;28;20207;-70
2022/05/22 01:48:52;;;;;;;0.00;0.00;;;;;;;10.35;100.00;100663.28;5072680;28;20733;-70
2022/05/22 01:51:17;;;;;;;0.00;0.00;;;;;;;10.31;100.00;100664.22;5072863;28;20177;-70
2022/05/22 01:53:43;;;;;;;0.00;0.00;;;;;;;10.27;100.00;100658.56;5073105;28;20246;-70
2022/05/22 01:56:08;;;;;;;0.30;0.30;;;;;;;10.30;100.00;100651.66;5072711;28;20250;-70
2022/05/22 01:58:34;;;;;;;0.63;0.63;;;;;;;10.37;100.00;100649.31;5072474;28;20631;-70
2022/05/22 02:00:59;;;;;;;0.00;0.00;;;;;;;10.39;100.00;100649.81;5072585;28;20181;-69
2022/05/22 02:03:25;;;;;;;0.17;0.17;;;;;;;10.43;100.00;100650.84;5072518;28;20176;-70
2022/05/22 02:05:50;;;;;;;4.67;1.47;;;;;;;10.50;100.00;100651.22;5072525;28;20364;-70
2022/05/22 02:08:26;;;;;;;0.00;0.00;;;;;;;10.45;100.00;100645.88;5072390;28;20171;-70
2022/05/22 02:10:57;;;;;;;0.10;0.10;;;;;;;10.41;100.00;100639.41;5072528;28;20200;-70
2022/05/22 02:13:26;;;;;;;0.20;0.20;;;;;;;10.40;100.00;100643.25;5072316;28;20185;-70
2022/05/22 02:15:52;;;;;;;0.30;0.30;;;;;;;10.42;100.00;100643.78;5072416;28;20170;-70
2022/05/22 02:18:18;;;;;;;0.27;0.27;;;;;;;10.44;100.00;100644.28;5072168;28;20167;-69
2022/05/22 02:20:43;;;;;;;1.30;1.23;;;;;;;10.45;100.00;100650.53;5072201;28;20221;-70
2022/05/22 02:23:09;;;;;;;0.50;0.50;;;;;;;10.46;100.00;100636.59;5071952;28;20169;-70
2022/05/22 02:25:38;;;;;;;0.10;0.10;;;;;;;10.52;100.00;100629.06;5072372;28;20225;-70
2022/05/22 02:28:05;;;;;;;0.00;0.00;;;;;;;10.58;100.00;100630.59;5071949;28;20178;-70
2022/05/22 02:30:34;;;;;;;0.00;0.00;;;;;;;10.63;100.00;100634.00;5071884;28;20171;-70
2022/05/22 02:33:00;;;;;;;4.73;0.73;;;;;;;10.65;100.00;100617.31;5072254;28;20175;-70
2022/05/22 02:35:25;;;;;;;0.50;0.43;;;;;;;10.64;100.00;100611.03;5071974;28;20646;-70
2022/05/22 02:37:53;;;;;;;0.00;0.00;;;;;;;10.60;100.00;100625.63;5071593;28;20703;-70
2022/05/22 02:40:22;;;;;;;0.00;0.00;;;;;;;10.53;100.00;100611.56;5071824;28;20170;-70
2022/05/22 02:42:49;;;;;;;0.43;0.43;;;;;;;10.40;100.00;100608.53;5071518;28;20221;-71
2022/05/22 02:45:17;;;;;;;0.00;0.00;;;;;;;10.33;100.00;100612.81;5071472;28;20190;-70
2022/05/22 02:47:42;;;;;;;0.00;0.00;;;;;;;10.20;100.00;100608.97;5071465;28;20171;-70
2022/05/22 02:50:09;;;;;;;2.33;0.27;;;;;;;10.08;100.00;100609.47;5071610;28;20202;-70
2022/05/22 02:52:34;;;;;;;0.00;0.00;;;;;;;9.97;100.00;100618.16;5071416;28;20185;-70
2022/05/22 02:55:00;;;;;;;0.00;0.00;;;;;;;9.96;100.00;100606.44;5071560;28;20167;-70
2022/05/22 02:57:26;;;;;;;0.60;0.60;;;;;;;9.93;100.00;100609.75;5071455;28;20236;-72
2022/05/22 02:59:54;;;;;;;2.33;0.93;;;;;;;9.87;100.00;100611.00;5071591;28;20183;-69
2022/05/22 03:02:19;;;;;;;4.93;2.00;;;;;;;9.76;100.00;100610.38;5071432;28;20170;-71
2022/05/22 03:04:45;;;;;;;0.00;0.00;;;;;;;9.75;100.00;100611.47;5071576;28;20507;-70
2022/05/22 03:07:13;;;;;;;0.10;0.10;;;;;;;9.69;100.00;100607.25;5071130;28;20209;-70
2022/05/22 03:09:41;;;;;;;0.07;0.07;;;;;;;9.65;100.00;100627.22;5071708;28;20177;-70
2022/05/22 03:12:09;;;;;;;1.30;1.30;;;;;;;9.55;100.00;100625.50;5071159;28;20166;-70
2022/05/22 03:14:34;;;;;;;0.00;0.00;;;;;;;9.48;100.00;100625.06;5071254;28;20163;-70
2022/05/22 03:16:59;;;;;;;0.20;0.20;;;;;;;9.42;100.00;100629.81;5071198;28;20232;-70
2022/05/22 03:19:25;;;;;;;0.00;0.00;;;;;;;9.41;100.00;100635.56;5071093;28;20230;-70
2022/05/22 03:21:50;;;;;;;0.10;0.10;;;;;;;9.38;100.00;100636.13;5071634;28;20166;-69
2022/05/22 03:24:16;;;;;;;0.10;0.10;;;;;;;9.40;100.00;100633.91;5071233;28;20175;-70
2022/05/22 03:26:41;;;;;;;0.23;0.23;;;;;;;9.46;100.00;100641.72;5071244;28;20289;-70
2022/05/22 03:29:06;;;;;;;0.00;0.00;;;;;;;9.54;100.00;100648.41;5071052;28;20178;-69
2022/05/22 03:31:32;;;;;;;0.13;0.13;;;;;;;9.57;100.00;100631.47;5070892;28;20512;-70
2022/05/22 03:33:57;;;;;;;0.00;0.00;;;;;;;9.60;100.00;100635.50;5070384;28;20261;-70
2022/05/22 03:36:22;;;;;;;0.53;0.53;;;;;;;9.61;100.00;100631.66;5070983;28;20175;-70
2022/05/22 03:38:48;;;;;;;0.50;0.50;;;;;;;9.60;100.00;100630.06;5070819;28;20171;-70
2022/05/22 03:41:13;;;;;;;0.00;0.00;;;;;;;9.65;100.00;100632.69;5070958;28;20569;-70
2022/05/22 03:43:38;;;;;;;0.30;0.30;;;;;;;9.68;100.00;100624.69;5070666;28;20189;-70
2022/05/22 03:46:04;;;;;;;0.00;0.00;;;;;;;9.74;100.00;100625.44;5069475;28;20260;-70
2022/05/22 03:48:29;;;;;;;0.10;0.10;;;;;;;9.75;100.00;100625.13;5070639;28;20178;-70
2022/05/22 03:50:54;;;;;;;0.40;0.40;;;;;;;9.76;100.00;100632.19;5070768;28;20601;-70
2022/05/22 03:53:20;;;;;;;0.17;0.17;;;;;;;9.80;100.00;100633.19;5070741;28;20595;-69
2022/05/22 03:55:47;;;;;;;0.00;0.00;;;;;;;9.89;100.00;100633.31;5071110;28;20185;-70
2022/05/22 03:58:12;;;;;;;13.97;0.53;;;;;;;9.95;100.00;100631.28;5070571;28;20170;-70
2022/05/22 04:00:37;;;;;;;0.00;0.00;;;;;;;10.03;100.00;100630.59;5070667;28;20209;-70
2022/05/22 04:03:03;;;;;;;0.00;0.00;;;;;;;10.10;100.00;100626.34;5070552;28;20695;-70
2022/05/22 04:05:28;;;;;;;0.00;0.00;;;;;;;10.19;100.00;100618.25;5070482;28;20531;-70
2022/05/22 04:07:53;;;;;;;0.00;0.00;;;;;;;10.24;100.00;100618.19;5070495;28;20178;-70
2022/05/22 04:10:19;;;;;;;0.00;0.00;;;;;;;10.22;100.00;100614.13;5070694;28;20174;-70
2022/05/22 04:12:46;;;;;;;0.00;0.00;;;;;;;10.17;100.00;100619.69;5070766;28;20182;-70
2022/05/22 04:15:15;;;;;;;0.00;0.00;;;;;;;10.17;100.00;100616.94;5070855;28;20175;-70
2022/05/22 04:17:40;;;;;;;12.13;0.73;;;;;;;10.17;100.00;100619.69;5070504;28;20692;-69
2022/05/22 04:20:07;;;;;;;0.00;0.00;;;;;;;10.10;100.00;100623.63;5070467;28;20178;-69
2022/05/22 04:22:33;;;;;;;0.00;0.00;;;;;;;10.07;100.00;100617.97;5070518;28;20638;-70
2022/05/22 04:25:15;;;;;;;0.07;0.07;;;;;;;10.13;100.00;100620.31;5070761;28;20252;-70
2022/05/22 04:27:42;;;;;;;0.10;0.10;;;;;;;10.05;100.00;100617.47;5070354;28;20198;-71
2022/05/22 04:30:10;;;;;;;0.10;0.10;;;;;;;10.13;100.00;100614.84;5070478;28;20166;-70
2022/05/22 04:32:35;;;;;;;0.00;0.00;;;;;;;10.21;100.00;100621.53;5070430;28;20175;-70
2022/05/22 04:35:01;;;;;;;0.00;0.00;;;;;;;10.25;100.00;100621.72;5070727;28;20182;-70
2022/05/22 04:37:26;;;;;;;0.17;0.17;;;;;;;10.30;100.00;100619.72;5070468;28;20248;-70
2022/05/22 04:39:51;;;;;;;0.00;0.00;;;;;;;10.33;100.00;100624.56;5070262;28;20205;-70
2022/05/22 04:42:17;;;;;;;0.00;0.00;;;;;;;10.43;100.00;100627.06;5068947;28;20179;-69
2022/05/22 04:44:42;;;;;;;0.00;0.00;;;;;;;10.58;100.00;100623.22;5070325;28;20224;-70
2022/05/22 04:47:08;;;;;;;0.17;0.17;;;;;;;10.73;100.00;100633.78;5074868;28;20195;-70
2022/05/22 04:49:33;;;;;;;0.00;0.00;;;;;;;10.83;100.00;100630.00;5074683;28;20167;-69
2022/05/22 04:51:58;;;;;;;0.00;0.00;;;;;;;10.92;100.00;100630.09;5074092;28;20224;-70
2022/05/22 04:54:24;;;;;;;0.00;0.00;;;;;;;10.93;100.00;100626.25;5074110;28;20708;-70
2022/05/22 04:56:52;;;;;;;0.00;0.00;;;;;;;11.05;100.00;100631.16;5074040;28;20224;-69
2022/05/22 04:59:17;;;;;;;0.00;0.00;;;;;;;11.19;100.00;100629.19;5074092;28;20182;-70
2022/05/22 05:01:43;;;;;;;0.03;0.03;;;;;;;11.29;100.00;100632.47;5073697;28;20175;-70
2022/05/22 05:04:08;;;;;;;0.00;0.00;;;;;;;11.38;99.36;100632.53;5073660;28;20563;-70
2022/05/22 05:06:34;;;;;;;0.00;0.00;;;;;;;11.44;97.45;100633.22;5073636;28;20241;-70
2022/05/22 05:08:59;;;;;;;0.00;0.00;;;;;;;11.48;96.19;100635.00;5073780;28;20179;-70
2022/05/22 05:11:24;;;;;;;0.00;0.00;;;;;;;11.50;95.70;100642.91;5073593;28;20526;-70
2022/05/22 05:13:50;;;;;;;0.00;0.00;;;;;;;11.55;94.66;100651.78;5072296;28;20179;-70
2022/05/22 05:16:15;;;;;;;0.00;0.00;;;;;;;11.60;94.56;100648.13;5071609;28;20281;-71
2022/05/22 05:18:41;;;;;;;0.43;0.43;;;;;;;11.60;93.90;100654.41;5073125;28;20265;-70
2022/05/22 05:21:11;;;;;;;0.00;0.00;;;;;;;11.69;94.33;100648.97;5073480;28;20198;-70
2022/05/22 05:23:37;;;;;;;0.00;0.00;;;;;;;11.76;92.88;100643.84;5073567;28;20178;-70
2022/05/22 05:26:04;;;;;;;0.00;0.00;;;;;;;11.74;92.39;100643.38;5073444;28;20202;-70
2022/05/22 05:28:30;;;;;;;2.03;1.93;;;;;;;11.70;92.84;100647.03;5073329;28;20175;-69
2022/05/22 05:30:55;;;;;;;0.00;0.00;;;;;;;11.62;93.78;100654.88;5073346;28;20265;-71
2022/05/22 05:33:21;;;;;;;3.20;0.50;;;;;;;11.59;94.22;100652.78;5073247;28;20733;-70
2022/05/22 05:35:46;;;;;;;0.03;0.03;;;;;;;11.52;95.08;100655.13;5073275;28;20182;-70
2022/05/22 05:38:12;;;;;;;11.70;0.30;;;;;;;11.46;95.32;100650.94;5073044;28;20178;-70
2022/05/22 05:40:37;;;;;;;1.80;1.40;;;;;;;11.25;95.00;100656.09;5073045;28;20187;-70
2022/05/22 05:43:03;;;;;;;1.13;1.13;;;;;;;11.26;96.05;100660.44;5073105;28;20181;-70
2022/05/22 05:45:29;;;;;;;0.43;0.43;;;;;;;11.27;96.96;100659.31;5072943;28;20668;-70
2022/05/22 05:47:55;;;;;;;0.00;0.00;;;;;;;11.29;96.96;100664.50;5072890;28;20262;-70
2022/05/22 05:50:22;;;;;;;2.83;1.90;;;;;;;11.36;97.58;100659.38;5073025;28;20178;-70
2022/05/22 05:52:54;;;;;;;1.20;1.00;;;;;;;11.32;97.29;100656.47;5072477;28;20171;-71
2022/05/22 05:55:19;;;;;;;0.37;0.37;;;;;;;11.33;98.66;100658.09;5072858;28;20261;-74
2022/05/22 05:57:45;;;;;;;0.00;0.00;;;;;;;11.38;99.37;100653.59;5072180;28;20305;-70
2022/05/22 06:00:15;;;;;;;0.00;0.00;;;;;;;11.44;98.96;100644.16;5071464;28;20185;-70
2022/05/22 06:02:40;;;;;;;0.00;0.00;;;;;;;11.51;98.86;100650.78;5072610;28;20200;-70
2022/05/22 06:05:06;;;;;;;0.90;0.40;;;;;;;11.65;98.44;100644.44;5071233;28;20319;-71
2022/05/22 06:07:32;;;;;;;2.10;2.00;;;;;;;11.63;97.86;100642.00;5072327;28;20170;-71
2022/05/22 06:09:58;;;;;;;0.00;0.00;;;;;;;11.68;96.42;100649.28;5072674;28;20236;-70
2022/05/22 06:12:24;;;;;;;0.47;0.47;;;;;;;11.78;96.74;100657.22;5072684;28;20182;-71
2022/05/22 06:14:49;;;;;;;1.47;1.37;;;;;;;11.73;96.97;100647.22;5072625;28;20571;-73
2022/05/22 06:17:15;;;;;;;0.73;0.73;;;;;;;11.74;97.39;100637.91;5069071;28;20205;-71
2022/05/22 06:19:57;;;;;;;0.57;0.57;;;;;;;11.77;97.55;100642.72;5072652;28;20186;-71
2022/05/22 06:22:25;;;;;;;17.43;2.57;;;;;;;11.72;96.05;100648.34;5071948;28;20174;-71
2022/05/22 06:24:51;;;;;;;0.30;0.30;;;;;;;11.72;94.92;100645.63;5069813;28;20269;-76
2022/05/22 06:27:17;;;;;;;0.00;0.00;;;;;;;11.83;95.88;100646.97;5072400;28;20289;-70
2022/05/22 06:29:43;;;;;;;3.70;0.63;;;;;;;11.90;94.60;100641.06;5072181;28;20262;-71
2022/05/22 06:32:12;;;;;;;0.00;0.00;;;;;;;11.99;93.75;100641.06;5072298;28;20517;-71
2022/05/22 06:34:41;;;;;;;0.73;0.67;;;;;;;12.05;93.48;100639.84;5072025;28;20175;-75
2022/05/22 06:37:11;;;;;;;0.00;0.00;;;;;;;12.07;91.85;100629.38;5072098;28;20228;-71
2022/05/22 06:39:51;;;;;;;0.07;0.07;;;;;;;12.09;91.46;100627.13;5072010;28;20224;-70
2022/05/22 06:42:28;;;;;;;0.20;0.20;;;;;;;12.19;91.59;100626.84;5072088;28;20607;-73
2022/05/22 06:45:15;;;;;;;0.00;0.00;;;;;;;12.24;91.78;100626.69;5071877;28;20590;-73
2022/05/22 06:47:43;;;;;;;0.00;0.00;;;;;;;12.33;91.91;100627.53;5071551;28;20673;-74
2022/05/22 06:50:12;;;;;;;0.20;0.13;;;;;;;12.41;92.27;100628.66;5072092;28;20170;-72
2022/05/22 06:52:38;;;;;;;0.00;0.00;;;;;;;12.53;92.58;100631.59;5075308;28;20189;-70
2022/05/22 06:55:05;;;;;;;0.00;0.00;;;;;;;12.61;91.76;100635.47;5073802;28;20171;-70
2022/05/22 06:57:30;;;;;;;0.00;0.00;;;;;;;12.75;90.49;100634.22;5072082;28;20553;-70
2022/05/22 06:59:58;;;;;;;0.00;0.00;;;;;;;12.76;89.36;100635.81;5072178;28;20189;-70
2022/05/22 07:02:27;;;;;;;0.00;0.00;;;;;;;12.69;89.07;100630.00;5072008;28;20691;-72
2022/05/22 07:04:55;;;;;;;0.00;0.00;;;;;;;12.91;90.02;100633.72;5071966;28;20630;-71
2022/05/22 07:07:21;;;;;;;0.10;0.10;;;;;;;13.07;89.33;100632.13;5070229;28;20673;-70
2022/05/22 07:09:47;;;;;;;0.10;0.10;;;;;;;13.13;87.23;100624.53;5070706;28;20186;-70
2022/05/22 07:12:14;;;;;;;0.00;0.00;;;;;;;13.14;87.94;100626.13;5071979;28;20175;-71
2022/05/22 07:14:39;;;;;;;0.77;0.77;;;;;;;13.18;86.88;100622.47;5071802;28;20193;-70
2022/05/22 07:17:07;;;;;;;2.47;0.43;;;;;;;13.25;85.97;100621.97;5071769;28;20654;-71
2022/05/22 07:19:37;;;;;;;0.00;0.00;;;;;;;13.24;84.85;100626.63;5071749;28;20245;-70
2022/05/22 07:22:06;;;;;;;0.00;0.00;;;;;;;13.46;85.38;100631.13;5071768;28;20200;-69
2022/05/22 07:24:35;;;;;;;0.50;0.50;;;;;;;13.58;84.83;100622.22;5071636;28;20181;-70
2022/05/22 07:27:01;;;;;;;0.00;0.00;;;;;;;13.78;85.04;100629.75;5071553;28;20209;-70
2022/05/22 07:29:26;;;;;;;0.00;0.00;;;;;;;13.75;81.70;100626.88;5071443;28;20290;-71
2022/05/22 07:31:54;;;;;;;0.00;0.00;;;;;;;13.85;81.82;100607.25;5069088;28;20266;-71
2022/05/22 07:34:20;;;;;;;0.53;0.53;;;;;;;14.06;82.73;100610.09;5069120;28;20185;-71
2022/05/22 07:36:45;;;;;;;0.77;0.47;;;;;;;13.95;80.33;100609.66;5071004;28;20296;-71
2022/05/22 07:39:11;;;;;;;0.00;0.00;;;;;;;13.81;80.36;100618.13;5071472;28;20652;-71
2022/05/22 07:41:36;;;;;;;0.63;0.63;;;;;;;13.70;79.99;100614.91;5071257;28;20174;-72
2022/05/22 07:44:02;;;;;;;0.00;0.00;;;;;;;13.62;81.18;100609.47;5071160;28;20634;-72
2022/05/22 07:46:27;;;;;;;3.00;1.50;;;;;;;13.86;82.52;100614.38;5071159;28;20685;-72
2022/05/22 07:48:53;;;;;;;0.00;0.00;;;;;;;14.11;80.77;100615.41;5070889;28;20530;-71
2022/05/22 07:51:18;;;;;;;0.00;0.00;;;;;;;14.22;77.23;100616.66;5071193;28;20175;-72
2022/05/22 07:53:44;;;;;;;0.00;0.00;;;;;;;14.47;77.01;100620.41;5071167;28;20171;-71
2022/05/22 07:56:11;;;;;;;0.00;0.00;;;;;;;14.55;75.34;100616.78;5071148;28;20209;-73
2022/05/22 07:58:37;;;;;;;0.00;0.00;;;;;;;14.61;74.43;100606.38;5070881;28;20645;-71
2022/05/22 08:01:03;;;;;;;0.77;0.77;;;;;;;14.49;73.49;100615.38;5071152;28;20224;-70
2022/05/22 08:03:29;;;;;;;2.27;1.27;;;;;;;14.30;73.53;100613.81;5071210;28;20181;-71
2022/05/22 08:05:55;;;;;;;0.00;0.00;;;;;;;14.10;75.55;100617.34;5070887;28;20563;-71
2022/05/22 08:08:22;;;;;;;0.20;0.20;;;;;;;14.12;75.93;100614.25;5070702;28;20174;-73
2022/05/22 08:10:47;;;;;;;0.00;0.00;;;;;;;14.17;75.18;100617.63;5071006;28;20228;-70
2022/05/22 08:13:13;;;;;;;0.63;0.63;;;;;;;14.16;74.20;100610.50;5070936;28;20179;-71
2022/05/22 08:15:40;;;;;;;0.77;0.77;;;;;;;14.18;74.20;100615.69;5071031;28;20536;-70
2022/05/22 08:18:07;;;;;;;0.63;0.37;;;;;;;13.95;73.90;100615.94;5070769;28;20215;-70
2022/05/22 08:20:34;;;;;;;0.00;0.00;;;;;;;13.83;73.56;100621.31;5071335;28;20574;-70
2022/05/22 08:23:03;;;;;;;0.23;0.23;;;;;;;13.67;73.18;100626.56;5074690;28;20257;-71
2022/05/22 08:25:30;;;;;;;0.00;0.00;;;;;;;13.72;72.95;100620.06;5074332;28;20205;-71
2022/05/22 08:27:57;;;;;;;0.20;0.20;;;;;;;14.04;73.95;100615.13;5074531;28;20178;-70
2022/05/22 08:30:24;;;;;;;0.67;0.67;;;;;;;14.10;71.29;100622.84;5074618;28;20220;-71
2022/05/22 08:32:50;;;;;;;0.70;0.60;;;;;;;14.22;71.26;100620.19;5074529;28;20182;-70
2022/05/22 08:35:23;;;;;;;0.00;0.00;;;;;;;14.42;72.47;100606.81;5069389;28;20186;-70
2022/05/22 08:37:48;;;;;;;0.23;0.23;;;;;;;14.64;71.62;100616.75;5074410;28;20193;-70
2022/05/22 08:40:16;;;;;;;0.00;0.00;;;;;;;14.94;71.24;100620.22;5074596;28;20174;-71
2022/05/22 08:42:52;;;;;;;0.00;0.00;;;;;;;15.06;67.78;100612.03;5074706;28;20174;-72
2022/05/22 08:45:23;;;;;;;0.20;0.17;;;;;;;15.11;66.75;100606.31;5074748;28;20277;-74
2022/05/22 08:47:48;;;;;;;0.67;0.63;;;;;;;15.25;68.13;100606.03;5073898;28;20579;-71
2022/05/22 08:50:14;;;;;;;1.10;0.30;;;;;;;15.08;67.83;100613.31;5073782;28;20206;-70
2022/05/22 08:52:45;;;;;;;0.77;0.47;;;;;;;15.19;67.79;100616.47;5074156;28;20504;-70
2022/05/22 08:58:56;;;;;;;0.30;0.30;;;;;;;15.18;68.19;100615.63;5069113;28;20245;-71
2022/05/22 09:01:31;;;;;;;0.40;0.40;;;;;;;14.88;67.41;100608.59;5071731;28;20265;-70
2022/05/22 09:04:05;;;;;;;0.00;0.00;;;;;;;15.03;69.21;100609.94;5070943;28;20180;-70
2022/05/22 09:06:38;;;;;;;0.00;0.00;;;;;;;15.03;70.70;100599.75;5070325;28;20189;-71
2022/05/22 09:09:04;;;;;;;0.27;0.27;;;;;;;14.98;69.25;100607.41;5070361;28;20178;-71
2022/05/22 09:12:03;;;;;;;0.00;0.00;;;;;;;15.12;69.36;100602.44;5070238;28;20638;-71
2022/05/22 09:14:42;;;;;;;0.00;0.00;;;;;;;15.37;69.59;100595.88;5054240;28;20198;-70
2022/05/22 09:17:14;;;;;;;0.17;0.17;;;;;;;15.67;68.34;100598.50;5059727;28;20175;-70
2022/05/22 09:19:46;;;;;;;3.60;0.43;;;;;;;15.54;64.11;100586.63;5073904;28;20250;-72
2022/05/22 09:22:26;;;;;;;0.20;0.10;;;;;;;15.42;64.00;100587.38;5064473;28;20186;-71
2022/05/22 09:25:01;;;;;;;0.00;0.00;;;;;;;15.43;64.34;100575.22;5056792;28;20251;-71
2022/05/22 09:27:29;;;;;;;0.10;0.10;;;;;;;15.58;63.71;100572.94;5055087;28;20380;-71
2022/05/22 09:30:06;;;;;;;0.00;0.00;;;;;;;15.81;64.04;100576.13;5058533;28;20555;-70
2022/05/22 09:33:04;;;;;;;1.20;0.67;;;;;;;15.95;62.73;100574.63;5064353;28;20542;-71
2022/05/22 09:36:01;;;;;;;1.23;1.23;;;;;;;16.17;63.04;100576.13;5015671;28;20200;-70
2022/05/22 09:39:05;;;;;;;0.57;0.40;;;;;;;16.34;63.57;100575.06;5055376;28;20949;-71
2022/05/22 09:41:58;;;;;;;0.77;0.30;;;;;;;16.11;61.74;100576.69;5057528;28;20183;-71
2022/05/22 09:44:36;;;;;;;0.10;0.10;;;;;;;15.60;63.11;100573.44;5053522;28;20229;-70
2022/05/22 09:47:28;;;;;;;0.00;0.00;;;;;;;15.37;65.26;100570.28;5057483;28;20681;-71
2022/05/22 09:50:11;;;;;;;21.23;0.50;;;;;;;15.81;65.95;100567.88;5059332;28;20174;-71
2022/05/22 09:52:53;;;;;;;0.00;0.00;;;;;;;15.90;66.21;100566.59;5061050;28;20289;-72
2022/05/22 09:55:32;;;;;;;0.00;0.00;;;;;;;16.00;62.24;100574.41;5068204;28;20213;-71
2022/05/22 09:58:05;;;;;;;0.27;0.27;;;;;;;16.24;61.71;100576.34;5072918;28;20615;-71
2022/05/22 10:00:49;;;;;;;0.37;0.37;;;;;;;16.17;61.82;100569.78;5072952;28;20568;-71
2022/05/22 10:03:21;;;;;;;0.00;0.00;;;;;;;16.31;61.65;100571.03;5072840;28;20170;-72
2022/05/22 10:05:52;;;;;;;0.10;0.10;;;;;;;16.66;61.79;100565.00;5072735;28;20272;-72
2022/05/22 10:08:51;;;;;;;0.33;0.33;;;;;;;16.69;61.90;100563.53;5072573;28;20178;-71
2022/05/22 10:11:28;;;;;;;0.00;0.00;;;;;;;16.53;61.05;100568.97;5072857;28;20257;-71
2022/05/22 10:14:06;;;;;;;1.27;1.17;;;;;;;16.26;61.06;100573.25;5072695;28;20219;-70
2022/05/22 10:16:34;;;;;;;0.00;0.00;;;;;;;16.21;63.12;100574.28;5072965;28;20202;-71
2022/05/22 10:19:36;;;;;;;0.00;0.00;;;;;;;16.43;61.55;100578.50;5072569;28;20182;-71
2022/05/22 10:22:22;;;;;;;0.30;0.30;;;;;;;16.54;60.68;100567.78;5069453;28;20186;-72
2022/05/22 10:25:09;;;;;;;0.07;0.07;;;;;;;16.64;61.18;100572.84;5072258;28;20186;-70
2022/05/22 10:27:52;;;;;;;0.00;0.00;;;;;;;16.85;59.99;100567.16;5068767;28;20206;-70
2022/05/22 10:30:24;;;;;;;0.03;0.03;;;;;;;16.78;58.39;100569.69;5072473;28;20175;-71
2022/05/22 10:33:15;;;;;;;0.00;0.00;;;;;;;17.08;58.39;100567.41;5072226;28;20266;-72
2022/05/22 10:35:50;;;;;;;0.10;0.10;;;;;;;17.02;59.78;100555.81;5072328;28;20532;-71
2022/05/22 10:38:25;;;;;;;0.73;0.73;;;;;;;16.75;60.83;100557.41;5072077;28;20177;-72
2022/05/22 10:43:43;;;;;;;0.00;0.00;;;;;;;16.73;59.55;100547.88;5072308;28;20196;-72
2022/05/22 10:46:08;;;;;;;0.27;0.27;;;;;;;16.87;60.45;100549.09;5071832;28;20562;-71
2022/05/22 10:48:35;;;;;;;0.97;0.37;;;;;;;16.99;59.48;100550.19;5071961;28;20174;-71
2022/05/22 10:51:20;;;;;;;0.20;0.20;;;;;;;16.52;60.18;100545.28;5071988;28;20178;-70
2022/05/22 10:53:45;;;;;;;0.00;0.00;;;;;;;16.84;59.47;100554.53;5071976;28;20178;-71
2022/05/22 10:56:14;;;;;;;0.20;0.20;;;;;;;17.20;59.59;100554.34;5071636;28;20174;-71
2022/05/22 10:58:51;;;;;;;0.67;0.67;;;;;;;17.12;57.46;100549.00;5071488;28;20571;-72
2022/05/22 11:01:20;;;;;;;0.00;0.00;;;;;;;16.75;58.82;100540.06;5071871;28;20696;-71
2022/05/22 11:03:47;;;;;;;1.23;0.83;;;;;;;16.62;59.17;100544.78;5071751;28;20175;-71
2022/05/22 11:06:21;;;;;;;0.20;0.10;;;;;;;16.85;60.31;100542.31;5071741;28;20661;-70
2022/05/22 11:08:52;;;;;;;0.47;0.47;;;;;;;17.07;58.68;100544.53;5071651;28;20177;-71
2022/05/22 11:11:27;;;;;;;0.10;0.10;;;;;;;17.17;58.19;100549.53;5071578;28;20189;-71
2022/05/22 11:14:04;;;;;;;0.50;0.50;;;;;;;17.14;59.08;100536.44;5071549;28;20384;-70
2022/05/22 11:16:29;;;;;;;0.10;0.10;;;;;;;17.29;57.94;100547.88;5071499;28;20181;-71
2022/05/22 11:19:05;;;;;;;0.00;0.00;;;;;;;17.22;56.43;100529.16;5071344;28;20171;-72
2022/05/22 11:21:55;;;;;;;0.10;0.10;;;;;;;17.65;57.00;100531.06;5070920;28;20173;-71
2022/05/22 11:24:58;;;;;;;0.23;0.23;;;;;;;17.98;58.48;100527.13;5069343;28;20235;-71
2022/05/22 11:27:48;;;;;;;0.00;0.00;;;;;;;17.95;56.12;100514.03;5070998;28;20237;-72
2022/05/22 11:30:43;;;;;;;0.00;0.00;;;;;;;18.02;56.67;100503.91;5071460;28;20224;-71
2022/05/22 11:33:28;;;;;;;0.30;0.30;;;;;;;17.41;57.99;100511.88;5051410;28;20689;-71
2022/05/22 11:36:08;;;;;;;0.20;0.20;;;;;;;17.45;57.09;100507.25;5051357;28;20179;-73
2022/05/22 11:38:44;;;;;;;5.67;5.10;;;;;;;17.66;57.33;100498.69;5051317;28;20167;-74